sensor_id;sensor_type;location;lat;lon;timestamp;P1;durP1;ratioP1;P2;durP2;ratioP2
317;SDS011;146;53.448;10.228;2022-12-29T00:00:17;2.97;;;2.77;;
317;SDS011;146;53.448;10.228;2022-12-29T00:02:44;3.03;;;2.83;;
317;SDS011;146;53.448;10.228;2022-12-29T00:05:11;2.90;;;2.70;;
317;SDS011;146;53.448;10.228;2022-12-29T00:07:38;3.30;;;3.00;;
317;SDS011;146;53.448;10.228;2022-12-29T00:10:05;3.00;;;2.80;;
317;SDS011;146;53.448;10.228;2022-12-29T00:12:32;3.27;;;3.07;;
317;SDS011;146;53.448;10.228;2022-12-29T00:15:14;4.40;;;3.10;;
317;SDS011;146;53.448;10.228;2022-12-29T00:17:59;3.13;;;2.93;;
317;SDS011;146;53.448;10.228;2022-12-29T00:20:26;2.80;;;2.63;;
317;SDS011;146;53.448;10.228;2022-12-29T00:23:10;3.20;;;2.90;;
317;SDS011;146;53.448;10.228;2022-12-29T00:25:54;3.20;;;3.00;;
317;SDS011;146;53.448;10.228;2022-12-29T00:28:54;3.27;;;3.07;;
317;SDS011;146;53.448;10.228;2022-12-29T00:31:39;3.33;;;3.13;;
317;SDS011;146;53.448;10.228;2022-12-29T00:34:24;3.60;;;3.40;;
317;SDS011;146;53.448;10.228;2022-12-29T00:37:08;3.50;;;3.20;;
317;SDS011;146;53.448;10.228;2022-12-29T00:39:35;3.87;;;3.57;;
317;SDS011;146;53.448;10.228;2022-12-29T00:42:20;3.87;;;3.60;;
317;SDS011;146;53.448;10.228;2022-12-29T00:45:04;3.73;;;3.23;;
317;SDS011;146;53.448;10.228;2022-12-29T00:47:33;3.40;;;3.17;;
317;SDS011;146;53.448;10.228;2022-12-29T00:50:00;3.33;;;3.13;;
317;SDS011;146;53.448;10.228;2022-12-29T00:52:26;3.73;;;3.43;;
317;SDS011;146;53.448;10.228;2022-12-29T00:54:56;3.70;;;3.50;;
317;SDS011;146;53.448;10.228;2022-12-29T00:57:23;3.27;;;3.10;;
317;SDS011;146;53.448;10.228;2022-12-29T00:59:50;4.10;;;3.70;;
317;SDS011;146;53.448;10.228;2022-12-29T01:02:16;3.70;;;3.40;;
317;SDS011;146;53.448;10.228;2022-12-29T01:04:45;4.30;;;3.90;;
317;SDS011;146;53.448;10.228;2022-12-29T01:07:11;3.73;;;3.47;;
317;SDS011;146;53.448;10.228;2022-12-29T01:09:38;3.77;;;3.30;;
317;SDS011;146;53.448;10.228;2022-12-29T01:12:23;3.70;;;3.40;;
317;SDS011;146;53.448;10.228;2022-12-29T01:15:04;3.80;;;3.50;;
317;SDS011;146;53.448;10.228;2022-12-29T01:17:32;3.70;;;3.40;;
317;SDS011;146;53.448;10.228;2022-12-29T01:20:00;4.13;;;3.83;;
317;SDS011;146;53.448;10.228;2022-12-29T01:22:27;3.60;;;3.30;;
317;SDS011;146;53.448;10.228;2022-12-29T01:24:54;4.10;;;3.80;;
317;SDS011;146;53.448;10.228;2022-12-29T01:27:20;3.63;;;3.40;;
317;SDS011;146;53.448;10.228;2022-12-29T01:29:47;4.07;;;3.87;;
317;SDS011;146;53.448;10.228;2022-12-29T01:32:14;4.20;;;3.80;;
317;SDS011;146;53.448;10.228;2022-12-29T01:34:41;3.87;;;3.57;;
317;SDS011;146;53.448;10.228;2022-12-29T01:37:09;4.23;;;3.93;;
317;SDS011;146;53.448;10.228;2022-12-29T01:39:37;5.50;;;3.60;;
317;SDS011;146;53.448;10.228;2022-12-29T01:42:05;4.30;;;4.00;;
317;SDS011;146;53.448;10.228;2022-12-29T01:44:46;3.10;;;2.90;;
317;SDS011;146;53.448;10.228;2022-12-29T01:47:19;3.90;;;3.57;;
317;SDS011;146;53.448;10.228;2022-12-29T01:49:51;3.67;;;3.37;;
317;SDS011;146;53.448;10.228;2022-12-29T01:52:23;3.50;;;3.20;;
317;SDS011;146;53.448;10.228;2022-12-29T01:54:53;4.37;;;3.60;;
317;SDS011;146;53.448;10.228;2022-12-29T01:57:24;3.97;;;3.77;;
317;SDS011;146;53.448;10.228;2022-12-29T01:59:56;4.30;;;4.00;;
317;SDS011;146;53.448;10.228;2022-12-29T02:02:29;3.37;;;3.17;;
317;SDS011;146;53.448;10.228;2022-12-29T02:04:57;3.57;;;3.27;;
317;SDS011;146;53.448;10.228;2022-12-29T02:07:29;3.83;;;3.57;;
317;SDS011;146;53.448;10.228;2022-12-29T02:09:57;2.83;;;2.63;;
317;SDS011;146;53.448;10.228;2022-12-29T02:12:26;3.13;;;2.97;;
317;SDS011;146;53.448;10.228;2022-12-29T02:14:57;3.30;;;3.10;;
317;SDS011;146;53.448;10.228;2022-12-29T02:17:29;3.90;;;3.20;;
317;SDS011;146;53.448;10.228;2022-12-29T02:20:11;3.33;;;3.10;;
317;SDS011;146;53.448;10.228;2022-12-29T02:23:04;3.43;;;3.13;;
317;SDS011;146;53.448;10.228;2022-12-29T02:25:50;3.03;;;2.83;;
317;SDS011;146;53.448;10.228;2022-12-29T02:31:51;4.40;;;3.03;;
317;SDS011;146;53.448;10.228;2022-12-29T02:34:22;3.30;;;3.10;;
317;SDS011;146;53.448;10.228;2022-12-29T02:37:00;2.50;;;2.40;;
317;SDS011;146;53.448;10.228;2022-12-29T02:39:32;3.10;;;2.90;;
317;SDS011;146;53.448;10.228;2022-12-29T02:42:06;3.37;;;3.17;;
317;SDS011;146;53.448;10.228;2022-12-29T02:44:42;2.90;;;2.70;;
317;SDS011;146;53.448;10.228;2022-12-29T02:47:20;5.10;;;2.93;;
317;SDS011;146;53.448;10.228;2022-12-29T02:49:51;3.80;;;3.47;;
317;SDS011;146;53.448;10.228;2022-12-29T02:52:26;2.97;;;2.77;;
317;SDS011;146;53.448;10.228;2022-12-29T02:54:57;3.30;;;3.00;;
317;SDS011;146;53.448;10.228;2022-12-29T02:57:30;3.43;;;3.20;;
317;SDS011;146;53.448;10.228;2022-12-29T03:00:00;3.10;;;2.90;;
317;SDS011;146;53.448;10.228;2022-12-29T03:02:42;3.17;;;2.93;;
317;SDS011;146;53.448;10.228;2022-12-29T03:05:41;3.23;;;2.93;;
317;SDS011;146;53.448;10.228;2022-12-29T03:08:28;2.70;;;2.50;;
317;SDS011;146;53.448;10.228;2022-12-29T03:11:01;3.83;;;3.53;;
317;SDS011;146;53.448;10.228;2022-12-29T03:13:33;2.77;;;2.67;;
317;SDS011;146;53.448;10.228;2022-12-29T03:16:23;3.20;;;2.90;;
317;SDS011;146;53.448;10.228;2022-12-29T03:18:59;3.33;;;3.07;;
317;SDS011;146;53.448;10.228;2022-12-29T03:21:32;3.00;;;2.80;;
317;SDS011;146;53.448;10.228;2022-12-29T03:24:22;3.47;;;2.90;;
317;SDS011;146;53.448;10.228;2022-12-29T03:26:54;3.30;;;3.10;;
317;SDS011;146;53.448;10.228;2022-12-29T03:29:24;3.43;;;3.23;;
317;SDS011;146;53.448;10.228;2022-12-29T03:31:54;3.00;;;2.80;;
317;SDS011;146;53.448;10.228;2022-12-29T03:34:24;3.33;;;3.03;;
317;SDS011;146;53.448;10.228;2022-12-29T03:36:53;3.00;;;2.80;;
317;SDS011;146;53.448;10.228;2022-12-29T03:39:24;2.97;;;2.70;;
317;SDS011;146;53.448;10.228;2022-12-29T03:41:53;3.13;;;2.93;;
317;SDS011;146;53.448;10.228;2022-12-29T03:44:30;2.23;;;2.13;;
317;SDS011;146;53.448;10.228;2022-12-29T03:46:59;2.10;;;2.00;;
317;SDS011;146;53.448;10.228;2022-12-29T03:49:27;2.77;;;2.57;;
317;SDS011;146;53.448;10.228;2022-12-29T03:51:54;2.50;;;2.17;;
317;SDS011;146;53.448;10.228;2022-12-29T03:54:21;2.60;;;2.13;;
317;SDS011;146;53.448;10.228;2022-12-29T03:56:48;2.80;;;2.20;;
317;SDS011;146;53.448;10.228;2022-12-29T03:59:14;2.20;;;2.00;;
317;SDS011;146;53.448;10.228;2022-12-29T04:01:41;5.13;;;2.17;;
317;SDS011;146;53.448;10.228;2022-12-29T04:04:08;2.30;;;1.83;;
317;SDS011;146;53.448;10.228;2022-12-29T04:06:36;2.43;;;2.23;;
317;SDS011;146;53.448;10.228;2022-12-29T04:09:03;2.00;;;1.63;;
317;SDS011;146;53.448;10.228;2022-12-29T04:11:32;1.70;;;1.60;;
317;SDS011;146;53.448;10.228;2022-12-29T04:13:59;2.13;;;2.00;;
317;SDS011;146;53.448;10.228;2022-12-29T04:16:26;2.07;;;1.97;;
317;SDS011;146;53.448;10.228;2022-12-29T04:18:53;1.90;;;1.80;;
317;SDS011;146;53.448;10.228;2022-12-29T04:21:19;2.10;;;1.87;;
317;SDS011;146;53.448;10.228;2022-12-29T04:23:47;1.87;;;1.77;;
317;SDS011;146;53.448;10.228;2022-12-29T04:26:13;3.57;;;2.03;;
317;SDS011;146;53.448;10.228;2022-12-29T04:28:40;2.53;;;2.43;;
317;SDS011;146;53.448;10.228;2022-12-29T04:31:07;2.43;;;2.13;;
317;SDS011;146;53.448;10.228;2022-12-29T04:33:34;1.97;;;1.83;;
317;SDS011;146;53.448;10.228;2022-12-29T04:36:01;1.67;;;1.60;;
317;SDS011;146;53.448;10.228;2022-12-29T04:38:28;1.87;;;1.77;;
317;SDS011;146;53.448;10.228;2022-12-29T04:40:58;2.00;;;1.90;;
317;SDS011;146;53.448;10.228;2022-12-29T04:43:25;1.70;;;1.60;;
317;SDS011;146;53.448;10.228;2022-12-29T04:45:52;1.97;;;1.87;;
317;SDS011;146;53.448;10.228;2022-12-29T04:48:19;1.70;;;1.60;;
317;SDS011;146;53.448;10.228;2022-12-29T04:50:47;3.13;;;2.17;;
317;SDS011;146;53.448;10.228;2022-12-29T04:53:15;2.03;;;1.93;;
317;SDS011;146;53.448;10.228;2022-12-29T04:55:43;1.37;;;1.27;;
317;SDS011;146;53.448;10.228;2022-12-29T04:58:12;2.90;;;1.50;;
317;SDS011;146;53.448;10.228;2022-12-29T05:00:39;4.77;;;2.07;;
317;SDS011;146;53.448;10.228;2022-12-29T05:03:05;1.43;;;1.33;;
317;SDS011;146;53.448;10.228;2022-12-29T05:05:32;1.67;;;1.57;;
317;SDS011;146;53.448;10.228;2022-12-29T05:07:59;1.73;;;1.63;;
317;SDS011;146;53.448;10.228;2022-12-29T05:10:26;1.77;;;1.67;;
317;SDS011;146;53.448;10.228;2022-12-29T05:12:53;1.67;;;1.40;;
317;SDS011;146;53.448;10.228;2022-12-29T05:15:21;1.83;;;1.70;;
317;SDS011;146;53.448;10.228;2022-12-29T05:17:48;1.50;;;1.40;;
317;SDS011;146;53.448;10.228;2022-12-29T05:20:14;1.43;;;1.33;;
317;SDS011;146;53.448;10.228;2022-12-29T05:22:41;2.03;;;1.40;;
317;SDS011;146;53.448;10.228;2022-12-29T05:25:08;2.00;;;1.70;;
317;SDS011;146;53.448;10.228;2022-12-29T05:27:35;1.83;;;1.60;;
317;SDS011;146;53.448;10.228;2022-12-29T05:30:02;2.10;;;2.00;;
317;SDS011;146;53.448;10.228;2022-12-29T05:32:31;2.00;;;1.90;;
317;SDS011;146;53.448;10.228;2022-12-29T05:34:58;1.80;;;1.70;;
317;SDS011;146;53.448;10.228;2022-12-29T05:37:24;2.00;;;1.80;;
317;SDS011;146;53.448;10.228;2022-12-29T05:39:51;1.93;;;1.83;;
317;SDS011;146;53.448;10.228;2022-12-29T05:42:18;1.33;;;1.33;;
317;SDS011;146;53.448;10.228;2022-12-29T05:44:45;1.80;;;1.70;;
317;SDS011;146;53.448;10.228;2022-12-29T05:47:15;1.97;;;1.87;;
317;SDS011;146;53.448;10.228;2022-12-29T05:49:43;1.67;;;1.57;;
317;SDS011;146;53.448;10.228;2022-12-29T05:52:10;1.80;;;1.70;;
317;SDS011;146;53.448;10.228;2022-12-29T05:54:36;1.77;;;1.67;;
317;SDS011;146;53.448;10.228;2022-12-29T05:57:03;2.90;;;2.00;;
317;SDS011;146;53.448;10.228;2022-12-29T05:59:30;1.60;;;1.50;;
317;SDS011;146;53.448;10.228;2022-12-29T06:01:57;1.63;;;1.53;;
317;SDS011;146;53.448;10.228;2022-12-29T06:04:24;1.50;;;1.50;;
317;SDS011;146;53.448;10.228;2022-12-29T06:06:52;1.90;;;1.80;;
317;SDS011;146;53.448;10.228;2022-12-29T06:09:19;1.57;;;1.47;;
317;SDS011;146;53.448;10.228;2022-12-29T06:11:46;2.00;;;1.60;;
317;SDS011;146;53.448;10.228;2022-12-29T06:14:12;1.40;;;1.30;;
317;SDS011;146;53.448;10.228;2022-12-29T06:16:39;1.60;;;1.50;;
317;SDS011;146;53.448;10.228;2022-12-29T06:19:06;1.53;;;1.43;;
317;SDS011;146;53.448;10.228;2022-12-29T06:21:33;1.40;;;1.30;;
317;SDS011;146;53.448;10.228;2022-12-29T06:24:01;2.20;;;1.57;;
317;SDS011;146;53.448;10.228;2022-12-29T06:26:29;1.83;;;1.73;;
317;SDS011;146;53.448;10.228;2022-12-29T06:28:55;1.43;;;1.33;;
317;SDS011;146;53.448;10.228;2022-12-29T06:31:22;3.07;;;1.33;;
317;SDS011;146;53.448;10.228;2022-12-29T06:33:49;2.33;;;2.23;;
317;SDS011;146;53.448;10.228;2022-12-29T06:36:16;1.50;;;1.40;;
317;SDS011;146;53.448;10.228;2022-12-29T06:38:43;2.33;;;1.80;;
317;SDS011;146;53.448;10.228;2022-12-29T06:41:11;6.00;;;1.80;;
317;SDS011;146;53.448;10.228;2022-12-29T06:43:37;2.00;;;1.90;;
317;SDS011;146;53.448;10.228;2022-12-29T06:46:04;2.10;;;2.00;;
317;SDS011;146;53.448;10.228;2022-12-29T06:48:32;2.47;;;2.37;;
317;SDS011;146;53.448;10.228;2022-12-29T06:50:58;2.70;;;2.10;;
317;SDS011;146;53.448;10.228;2022-12-29T06:53:25;1.77;;;1.67;;
317;SDS011;146;53.448;10.228;2022-12-29T06:55:52;2.80;;;2.10;;
317;SDS011;146;53.448;10.228;2022-12-29T06:58:20;2.30;;;2.03;;
317;SDS011;146;53.448;10.228;2022-12-29T07:00:47;2.23;;;1.63;;
317;SDS011;146;53.448;10.228;2022-12-29T07:03:14;2.57;;;2.37;;
317;SDS011;146;53.448;10.228;2022-12-29T07:05:41;1.67;;;1.57;;
317;SDS011;146;53.448;10.228;2022-12-29T07:08:08;1.80;;;1.70;;
317;SDS011;146;53.448;10.228;2022-12-29T07:10:34;2.37;;;2.10;;
317;SDS011;146;53.448;10.228;2022-12-29T07:13:01;1.80;;;1.70;;
317;SDS011;146;53.448;10.228;2022-12-29T07:15:29;1.87;;;1.77;;
317;SDS011;146;53.448;10.228;2022-12-29T07:17:56;4.50;;;3.03;;
317;SDS011;146;53.448;10.228;2022-12-29T07:20:23;1.87;;;1.77;;
317;SDS011;146;53.448;10.228;2022-12-29T07:22:50;1.60;;;1.50;;
317;SDS011;146;53.448;10.228;2022-12-29T07:25:17;2.10;;;2.00;;
317;SDS011;146;53.448;10.228;2022-12-29T07:27:43;2.27;;;2.07;;
317;SDS011;146;53.448;10.228;2022-12-29T07:30:11;2.67;;;2.47;;
317;SDS011;146;53.448;10.228;2022-12-29T07:32:40;2.33;;;2.23;;
317;SDS011;146;53.448;10.228;2022-12-29T07:35:07;1.80;;;1.70;;
317;SDS011;146;53.448;10.228;2022-12-29T07:37:34;1.73;;;1.63;;
317;SDS011;146;53.448;10.228;2022-12-29T07:40:01;1.77;;;1.60;;
317;SDS011;146;53.448;10.228;2022-12-29T07:42:29;1.67;;;1.57;;
317;SDS011;146;53.448;10.228;2022-12-29T07:44:59;1.47;;;1.37;;
317;SDS011;146;53.448;10.228;2022-12-29T07:47:26;2.40;;;1.57;;
317;SDS011;146;53.448;10.228;2022-12-29T07:49:54;4.90;;;1.60;;
317;SDS011;146;53.448;10.228;2022-12-29T07:52:21;1.70;;;1.40;;
317;SDS011;146;53.448;10.228;2022-12-29T07:54:48;1.63;;;1.30;;
317;SDS011;146;53.448;10.228;2022-12-29T07:57:14;1.17;;;1.13;;
317;SDS011;146;53.448;10.228;2022-12-29T07:59:41;1.70;;;1.60;;
317;SDS011;146;53.448;10.228;2022-12-29T08:02:09;1.60;;;1.50;;
317;SDS011;146;53.448;10.228;2022-12-29T08:04:36;2.10;;;2.00;;
317;SDS011;146;53.448;10.228;2022-12-29T08:07:05;4.63;;;1.93;;
317;SDS011;146;53.448;10.228;2022-12-29T08:09:34;1.53;;;1.43;;
317;SDS011;146;53.448;10.228;2022-12-29T08:12:01;1.50;;;1.40;;
317;SDS011;146;53.448;10.228;2022-12-29T08:14:28;1.60;;;1.50;;
317;SDS011;146;53.448;10.228;2022-12-29T08:16:55;3.33;;;1.67;;
317;SDS011;146;53.448;10.228;2022-12-29T08:19:22;1.47;;;1.37;;
317;SDS011;146;53.448;10.228;2022-12-29T08:21:48;1.30;;;1.20;;
317;SDS011;146;53.448;10.228;2022-12-29T08:24:17;2.00;;;1.90;;
317;SDS011;146;53.448;10.228;2022-12-29T08:26:44;1.63;;;1.53;;
317;SDS011;146;53.448;10.228;2022-12-29T08:29:11;2.13;;;2.03;;
317;SDS011;146;53.448;10.228;2022-12-29T08:31:38;1.93;;;1.70;;
317;SDS011;146;53.448;10.228;2022-12-29T08:34:04;1.70;;;1.60;;
317;SDS011;146;53.448;10.228;2022-12-29T08:36:31;2.23;;;1.70;;
317;SDS011;146;53.448;10.228;2022-12-29T08:38:58;2.40;;;1.37;;
317;SDS011;146;53.448;10.228;2022-12-29T08:41:26;1.57;;;1.47;;
317;SDS011;146;53.448;10.228;2022-12-29T08:43:53;1.47;;;1.30;;
317;SDS011;146;53.448;10.228;2022-12-29T08:46:20;2.87;;;1.00;;
317;SDS011;146;53.448;10.228;2022-12-29T08:48:47;1.73;;;1.00;;
317;SDS011;146;53.448;10.228;2022-12-29T08:51:14;1.17;;;1.07;;
317;SDS011;146;53.448;10.228;2022-12-29T08:53:42;1.70;;;1.00;;
317;SDS011;146;53.448;10.228;2022-12-29T08:56:09;4.00;;;1.70;;
317;SDS011;146;53.448;10.228;2022-12-29T08:58:38;1.47;;;1.17;;
317;SDS011;146;53.448;10.228;2022-12-29T09:01:05;1.20;;;1.13;;
317;SDS011;146;53.448;10.228;2022-12-29T09:03:32;1.23;;;1.13;;
317;SDS011;146;53.448;10.228;2022-12-29T09:05:59;1.30;;;1.20;;
317;SDS011;146;53.448;10.228;2022-12-29T09:08:26;1.50;;;1.03;;
317;SDS011;146;53.448;10.228;2022-12-29T09:10:53;1.10;;;1.00;;
317;SDS011;146;53.448;10.228;2022-12-29T09:13:20;2.50;;;1.30;;
317;SDS011;146;53.448;10.228;2022-12-29T09:15:48;2.10;;;1.20;;
317;SDS011;146;53.448;10.228;2022-12-29T09:18:15;1.10;;;1.10;;
317;SDS011;146;53.448;10.228;2022-12-29T09:20:41;0.93;;;0.90;;
317;SDS011;146;53.448;10.228;2022-12-29T09:23:08;1.43;;;0.90;;
317;SDS011;146;53.448;10.228;2022-12-29T09:25:35;1.10;;;1.00;;
317;SDS011;146;53.448;10.228;2022-12-29T09:28:02;0.93;;;0.90;;
317;SDS011;146;53.448;10.228;2022-12-29T09:30:32;1.13;;;1.00;;
317;SDS011;146;53.448;10.228;2022-12-29T09:33:06;0.90;;;0.90;;
317;SDS011;146;53.448;10.228;2022-12-29T09:35:36;3.73;;;2.23;;
317;SDS011;146;53.448;10.228;2022-12-29T09:38:04;5.00;;;1.47;;
317;SDS011;146;53.448;10.228;2022-12-29T09:40:35;3.53;;;1.00;;
317;SDS011;146;53.448;10.228;2022-12-29T09:43:09;1.80;;;1.10;;
317;SDS011;146;53.448;10.228;2022-12-29T09:45:51;0.90;;;0.90;;
317;SDS011;146;53.448;10.228;2022-12-29T09:48:27;2.63;;;1.50;;
317;SDS011;146;53.448;10.228;2022-12-29T09:50:59;3.90;;;1.60;;
317;SDS011;146;53.448;10.228;2022-12-29T09:53:29;4.30;;;1.10;;
317;SDS011;146;53.448;10.228;2022-12-29T09:55:59;1.20;;;1.00;;
317;SDS011;146;53.448;10.228;2022-12-29T09:58:29;2.00;;;1.20;;
317;SDS011;146;53.448;10.228;2022-12-29T10:01:04;1.43;;;0.80;;
317;SDS011;146;53.448;10.228;2022-12-29T10:03:40;2.60;;;1.30;;
317;SDS011;146;53.448;10.228;2022-12-29T10:06:13;3.50;;;1.00;;
317;SDS011;146;53.448;10.228;2022-12-29T10:08:44;1.30;;;1.20;;
317;SDS011;146;53.448;10.228;2022-12-29T10:11:22;2.30;;;1.20;;
317;SDS011;146;53.448;10.228;2022-12-29T10:14:04;1.10;;;1.00;;
317;SDS011;146;53.448;10.228;2022-12-29T10:16:46;2.83;;;1.70;;
317;SDS011;146;53.448;10.228;2022-12-29T10:19:26;2.43;;;1.20;;
317;SDS011;146;53.448;10.228;2022-12-29T10:22:04;2.10;;;1.17;;
317;SDS011;146;53.448;10.228;2022-12-29T10:24:41;1.53;;;1.10;;
317;SDS011;146;53.448;10.228;2022-12-29T10:27:12;2.40;;;1.00;;
317;SDS011;146;53.448;10.228;2022-12-29T10:29:43;1.90;;;1.30;;
317;SDS011;146;53.448;10.228;2022-12-29T10:32:17;1.63;;;0.93;;
317;SDS011;146;53.448;10.228;2022-12-29T10:34:53;1.77;;;1.13;;
317;SDS011;146;53.448;10.228;2022-12-29T10:37:24;1.40;;;0.93;;
317;SDS011;146;53.448;10.228;2022-12-29T10:39:58;0.97;;;0.97;;
317;SDS011;146;53.448;10.228;2022-12-29T10:42:29;1.53;;;1.10;;
317;SDS011;146;53.448;10.228;2022-12-29T10:45:02;2.07;;;1.27;;
317;SDS011;146;53.448;10.228;2022-12-29T10:47:31;2.27;;;1.23;;
317;SDS011;146;53.448;10.228;2022-12-29T10:50:03;1.50;;;1.40;;
317;SDS011;146;53.448;10.228;2022-12-29T10:52:32;2.30;;;0.90;;
317;SDS011;146;53.448;10.228;2022-12-29T10:55:02;2.80;;;1.20;;
317;SDS011;146;53.448;10.228;2022-12-29T10:57:34;3.13;;;1.47;;
317;SDS011;146;53.448;10.228;2022-12-29T11:00:08;2.83;;;1.23;;
317;SDS011;146;53.448;10.228;2022-12-29T11:02:52;2.13;;;1.00;;
317;SDS011;146;53.448;10.228;2022-12-29T11:05:43;2.00;;;1.60;;
317;SDS011;146;53.448;10.228;2022-12-29T11:08:17;3.20;;;1.40;;
317;SDS011;146;53.448;10.228;2022-12-29T11:10:46;2.10;;;1.50;;
317;SDS011;146;53.448;10.228;2022-12-29T11:13:24;1.60;;;1.10;;
317;SDS011;146;53.448;10.228;2022-12-29T11:16:08;1.60;;;0.90;;
317;SDS011;146;53.448;10.228;2022-12-29T11:18:59;1.30;;;1.20;;
317;SDS011;146;53.448;10.228;2022-12-29T11:21:30;1.53;;;0.83;;
317;SDS011;146;53.448;10.228;2022-12-29T11:23:59;1.23;;;1.00;;
317;SDS011;146;53.448;10.228;2022-12-29T11:26:27;3.37;;;1.80;;
317;SDS011;146;53.448;10.228;2022-12-29T11:29:05;0.83;;;0.80;;
317;SDS011;146;53.448;10.228;2022-12-29T11:31:57;2.07;;;1.03;;
317;SDS011;146;53.448;10.228;2022-12-29T11:34:25;7.50;;;1.10;;
317;SDS011;146;53.448;10.228;2022-12-29T11:37:00;1.50;;;0.80;;
317;SDS011;146;53.448;10.228;2022-12-29T11:39:33;3.00;;;0.87;;
317;SDS011;146;53.448;10.228;2022-12-29T11:42:12;2.20;;;1.00;;
317;SDS011;146;53.448;10.228;2022-12-29T11:44:42;3.63;;;0.87;;
317;SDS011;146;53.448;10.228;2022-12-29T11:47:12;3.77;;;1.10;;
317;SDS011;146;53.448;10.228;2022-12-29T11:49:49;1.43;;;0.87;;
317;SDS011;146;53.448;10.228;2022-12-29T11:52:22;1.97;;;1.30;;
317;SDS011;146;53.448;10.228;2022-12-29T11:54:50;2.83;;;1.27;;
317;SDS011;146;53.448;10.228;2022-12-29T11:57:19;1.47;;;1.07;;
317;SDS011;146;53.448;10.228;2022-12-29T11:59:49;1.23;;;1.13;;
317;SDS011;146;53.448;10.228;2022-12-29T12:05:16;2.73;;;0.87;;
317;SDS011;146;53.448;10.228;2022-12-29T12:07:52;2.83;;;0.93;;
317;SDS011;146;53.448;10.228;2022-12-29T12:10:23;0.83;;;0.83;;
317;SDS011;146;53.448;10.228;2022-12-29T12:13:06;3.77;;;1.00;;
317;SDS011;146;53.448;10.228;2022-12-29T12:15:41;4.30;;;1.50;;
317;SDS011;146;53.448;10.228;2022-12-29T12:18:14;2.37;;;0.90;;
317;SDS011;146;53.448;10.228;2022-12-29T12:20:49;1.33;;;0.70;;
317;SDS011;146;53.448;10.228;2022-12-29T12:23:30;2.40;;;1.00;;
317;SDS011;146;53.448;10.228;2022-12-29T12:26:04;2.53;;;1.33;;
317;SDS011;146;53.448;10.228;2022-12-29T12:28:37;1.30;;;1.10;;
317;SDS011;146;53.448;10.228;2022-12-29T12:31:13;2.50;;;1.07;;
317;SDS011;146;53.448;10.228;2022-12-29T12:33:49;1.00;;;0.80;;
317;SDS011;146;53.448;10.228;2022-12-29T12:36:32;1.27;;;0.97;;
317;SDS011;146;53.448;10.228;2022-12-29T12:39:56;1.27;;;0.80;;
317;SDS011;146;53.448;10.228;2022-12-29T12:42:39;3.27;;;1.10;;
317;SDS011;146;53.448;10.228;2022-12-29T12:45:32;4.57;;;1.27;;
317;SDS011;146;53.448;10.228;2022-12-29T12:48:19;4.80;;;1.40;;
317;SDS011;146;53.448;10.228;2022-12-29T12:51:01;2.60;;;1.93;;
317;SDS011;146;53.448;10.228;2022-12-29T12:53:42;2.50;;;1.10;;
317;SDS011;146;53.448;10.228;2022-12-29T12:56:28;4.80;;;1.30;;
317;SDS011;146;53.448;10.228;2022-12-29T12:59:06;1.43;;;1.00;;
317;SDS011;146;53.448;10.228;2022-12-29T13:01:46;3.33;;;2.57;;
317;SDS011;146;53.448;10.228;2022-12-29T13:04:28;3.77;;;1.60;;
317;SDS011;146;53.448;10.228;2022-12-29T13:07:12;3.20;;;1.17;;
317;SDS011;146;53.448;10.228;2022-12-29T13:09:55;1.23;;;1.10;;
317;SDS011;146;53.448;10.228;2022-12-29T13:12:34;5.80;;;1.33;;
317;SDS011;146;53.448;10.228;2022-12-29T13:15:12;3.80;;;1.00;;
317;SDS011;146;53.448;10.228;2022-12-29T13:17:50;4.20;;;1.30;;
317;SDS011;146;53.448;10.228;2022-12-29T13:20:25;3.30;;;0.93;;
317;SDS011;146;53.448;10.228;2022-12-29T13:22:57;3.03;;;1.20;;
317;SDS011;146;53.448;10.228;2022-12-29T13:25:33;1.20;;;0.80;;
317;SDS011;146;53.448;10.228;2022-12-29T13:28:06;2.07;;;1.00;;
317;SDS011;146;53.448;10.228;2022-12-29T13:30:40;3.43;;;1.40;;
317;SDS011;146;53.448;10.228;2022-12-29T13:33:22;2.63;;;1.10;;
317;SDS011;146;53.448;10.228;2022-12-29T13:35:59;2.30;;;1.70;;
317;SDS011;146;53.448;10.228;2022-12-29T13:38:29;3.60;;;1.10;;
317;SDS011;146;53.448;10.228;2022-12-29T13:41:01;4.10;;;1.90;;
317;SDS011;146;53.448;10.228;2022-12-29T13:43:34;3.93;;;1.40;;
317;SDS011;146;53.448;10.228;2022-12-29T13:46:06;0.80;;;0.77;;
317;SDS011;146;53.448;10.228;2022-12-29T13:48:37;2.37;;;0.97;;
317;SDS011;146;53.448;10.228;2022-12-29T13:51:09;5.23;;;1.93;;
317;SDS011;146;53.448;10.228;2022-12-29T13:53:40;5.13;;;1.40;;
317;SDS011;146;53.448;10.228;2022-12-29T13:56:19;4.40;;;1.00;;
317;SDS011;146;53.448;10.228;2022-12-29T13:58:53;3.17;;;1.40;;
317;SDS011;146;53.448;10.228;2022-12-29T14:01:24;4.93;;;2.73;;
317;SDS011;146;53.448;10.228;2022-12-29T14:03:57;2.20;;;1.00;;
317;SDS011;146;53.448;10.228;2022-12-29T14:06:25;3.10;;;1.53;;
317;SDS011;146;53.448;10.228;2022-12-29T14:08:54;3.70;;;0.90;;
317;SDS011;146;53.448;10.228;2022-12-29T14:11:25;2.70;;;0.80;;
317;SDS011;146;53.448;10.228;2022-12-29T14:13:58;2.10;;;1.07;;
317;SDS011;146;53.448;10.228;2022-12-29T14:16:35;2.57;;;0.87;;
317;SDS011;146;53.448;10.228;2022-12-29T14:19:11;4.17;;;1.43;;
317;SDS011;146;53.448;10.228;2022-12-29T14:21:41;2.70;;;1.57;;
317;SDS011;146;53.448;10.228;2022-12-29T14:24:28;3.13;;;1.33;;
317;SDS011;146;53.448;10.228;2022-12-29T14:33:19;3.70;;;1.70;;
317;SDS011;146;53.448;10.228;2022-12-29T14:35:48;1.63;;;1.53;;
317;SDS011;146;53.448;10.228;2022-12-29T14:38:18;2.33;;;1.20;;
317;SDS011;146;53.448;10.228;2022-12-29T14:40:48;3.83;;;1.30;;
317;SDS011;146;53.448;10.228;2022-12-29T14:43:19;2.47;;;1.70;;
317;SDS011;146;53.448;10.228;2022-12-29T14:45:55;1.63;;;1.50;;
317;SDS011;146;53.448;10.228;2022-12-29T14:48:33;3.33;;;1.07;;
317;SDS011;146;53.448;10.228;2022-12-29T14:51:16;4.57;;;1.13;;
317;SDS011;146;53.448;10.228;2022-12-29T14:53:46;1.27;;;0.90;;
317;SDS011;146;53.448;10.228;2022-12-29T14:56:15;1.20;;;1.10;;
317;SDS011;146;53.448;10.228;2022-12-29T14:58:49;4.63;;;1.50;;
317;SDS011;146;53.448;10.228;2022-12-29T15:01:22;2.07;;;1.10;;
317;SDS011;146;53.448;10.228;2022-12-29T15:03:53;3.07;;;0.90;;
317;SDS011;146;53.448;10.228;2022-12-29T15:06:23;1.40;;;1.20;;
317;SDS011;146;53.448;10.228;2022-12-29T15:08:54;1.83;;;1.30;;
317;SDS011;146;53.448;10.228;2022-12-29T15:11:30;1.97;;;1.40;;
317;SDS011;146;53.448;10.228;2022-12-29T15:16:58;2.80;;;1.87;;
317;SDS011;146;53.448;10.228;2022-12-29T15:19:25;4.43;;;1.90;;
317;SDS011;146;53.448;10.228;2022-12-29T15:21:53;3.17;;;1.60;;
317;SDS011;146;53.448;10.228;2022-12-29T15:24:20;2.17;;;1.20;;
317;SDS011;146;53.448;10.228;2022-12-29T15:26:49;2.40;;;1.63;;
317;SDS011;146;53.448;10.228;2022-12-29T15:29:30;1.50;;;1.40;;
317;SDS011;146;53.448;10.228;2022-12-29T15:32:02;1.60;;;1.50;;
317;SDS011;146;53.448;10.228;2022-12-29T15:34:43;8.87;;;1.80;;
317;SDS011;146;53.448;10.228;2022-12-29T15:37:15;1.53;;;1.40;;
317;SDS011;146;53.448;10.228;2022-12-29T15:39:47;5.87;;;1.67;;
317;SDS011;146;53.448;10.228;2022-12-29T15:42:18;4.60;;;1.80;;
317;SDS011;146;53.448;10.228;2022-12-29T15:44:57;2.23;;;1.50;;
317;SDS011;146;53.448;10.228;2022-12-29T15:47:26;1.40;;;1.30;;
317;SDS011;146;53.448;10.228;2022-12-29T15:49:57;4.17;;;1.70;;
317;SDS011;146;53.448;10.228;2022-12-29T15:52:28;1.40;;;1.30;;
317;SDS011;146;53.448;10.228;2022-12-29T15:54:57;1.63;;;1.43;;
317;SDS011;146;53.448;10.228;2022-12-29T15:57:26;2.20;;;1.63;;
317;SDS011;146;53.448;10.228;2022-12-29T15:59:54;3.03;;;1.53;;
317;SDS011;146;53.448;10.228;2022-12-29T16:02:22;3.60;;;1.80;;
317;SDS011;146;53.448;10.228;2022-12-29T16:04:51;5.13;;;1.57;;
317;SDS011;146;53.448;10.228;2022-12-29T16:07:23;2.20;;;1.33;;
317;SDS011;146;53.448;10.228;2022-12-29T16:09:53;1.63;;;1.20;;
317;SDS011;146;53.448;10.228;2022-12-29T16:12:22;3.80;;;2.50;;